Time;durP1;ratioP1;P1;durP2;ratioP2;P2;SDS_P1;SDS_P2;PMS_P1;PMS_P2;Temp;Humidity;BMP_temperature;BMP_pressure;BME280_temperature;BME280_humidity;BME280_pressure;Samples;Min_cycle;Max_cycle;Signal;HPM_P1;HPM_P2
2022/01/20 00:03:14;;;;;;;104.95;41.10;;;-7.30;99.90;;;;;;4123619;28;20105;-55
2022/01/20 00:05:35;;;;;;;108.53;42.08;;;-7.30;99.90;;;;;;4122490;28;20038;-57
2022/01/20 00:07:49;;;;;;;103.65;41.20;;;-7.40;99.90;;;;;;4124348;28;20438;-56
2022/01/20 00:26:18;;;;;;;108.03;40.75;;;-7.80;99.90;;;;;;4124658;28;20038;-53
2022/01/20 00:28:26;;;;;;;100.85;40.13;;;-7.70;99.90;;;;;;4126594;28;20089;-55
2022/01/20 00:30:38;;;;;;;90.13;40.15;;;-7.70;99.90;;;;;;4126479;28;20042;-60
2022/01/20 00:37:16;;;;;;;109.32;40.33;;;-7.50;99.90;;;;;;4126436;28;20034;-54
2022/01/20 00:39:17;;;;;;;93.55;38.67;;;-7.60;99.90;;;;;;4126459;28;20046;-54
2022/01/20 00:41:18;;;;;;;98.43;41.17;;;-7.60;99.90;;;;;;4125979;28;20053;-57
2022/01/20 00:43:20;;;;;;;110.97;46.05;;;-7.70;99.90;;;;;;4126008;28;20050;-60
2022/01/20 00:45:21;;;;;;;106.30;42.42;;;-7.70;99.90;;;;;;4125694;28;20042;-56
2022/01/20 00:47:22;;;;;;;107.00;40.88;;;-7.80;99.90;;;;;;4125962;28;20533;-55
2022/01/20 00:49:23;;;;;;;103.30;41.63;;;-7.80;99.90;;;;;;4125598;28;20097;-55
2022/01/20 00:51:24;;;;;;;97.25;39.53;;;-7.90;99.90;;;;;;4126292;28;20430;-63
2022/01/20 00:53:25;;;;;;;97.78;37.90;;;-7.90;99.90;;;;;;4125126;28;20031;-51
2022/01/20 00:55:27;;;;;;;79.88;31.15;;;-7.90;99.90;;;;;;4126263;28;20042;-60
2022/01/20 00:57:28;;;;;;;78.18;30.33;;;-8.00;99.90;;;;;;4125638;28;20088;-59
2022/01/20 00:59:30;;;;;;;79.60;33.33;;;-8.00;99.90;;;;;;4126081;28;20436;-59
2022/01/20 01:01:31;;;;;;;76.15;31.27;;;-8.10;99.90;;;;;;4124907;28;20074;-54
2022/01/20 01:03:32;;;;;;;70.40;31.02;;;-8.10;99.90;;;;;;4126218;28;20034;-57
2022/01/20 01:05:41;;;;;;;79.90;32.13;;;-8.10;99.90;;;;;;4125303;28;20038;-55
2022/01/20 01:07:51;;;;;;;77.65;32.45;;;-8.10;99.90;;;;;;4126599;28;20026;-50
2022/01/20 01:09:52;;;;;;;83.25;32.08;;;-8.10;99.90;;;;;;4125728;28;20039;-55
2022/01/20 01:11:58;;;;;;;88.75;34.25;;;-8.10;99.90;;;;;;4125943;28;20760;-54
2022/01/20 01:14:01;;;;;;;80.53;33.13;;;-8.10;99.90;;;;;;4125174;28;20035;-52
2022/01/20 01:16:05;;;;;;;81.28;32.72;;;-8.10;99.90;;;;;;4125361;28;20092;-54
2022/01/20 01:20:33;;;;;;;82.35;33.95;;;-8.30;99.90;;;;;;4126167;28;20072;-53
2022/01/20 01:22:35;;;;;;;84.72;32.70;;;-8.30;99.90;;;;;;4125641;28;20064;-51
2022/01/20 01:24:41;;;;;;;76.57;32.83;;;-8.40;99.90;;;;;;4125583;28;20553;-58
2022/01/20 01:26:42;;;;;;;77.70;33.45;;;-8.40;99.90;;;;;;4124897;28;20042;-60
2022/01/20 01:28:45;;;;;;;89.22;35.38;;;-8.40;99.90;;;;;;4125656;28;20089;-52
2022/01/20 01:33:07;;;;;;;85.97;34.85;;;-8.50;99.90;;;;;;4125242;28;20080;-62
2022/01/20 01:35:10;;;;;;;85.35;36.08;;;-8.50;99.90;;;;;;4125147;28;20081;-49
2022/01/20 01:38:23;;;;;;;86.97;36.97;;;-8.60;99.90;;;;;;4124113;28;20375;-59
2022/01/20 01:39:32;;;;;;;96.45;38.55;;;-8.60;99.90;;;;;;4125421;28;20450;-57
2022/01/20 01:41:36;;;;;;;99.72;41.20;;;-8.60;99.90;;;;;;4125111;28;20948;-55
2022/01/20 01:43:41;;;;;;;94.88;39.58;;;-8.70;99.90;;;;;;4121771;28;20042;-51
2022/01/20 01:45:42;;;;;;;86.45;36.83;;;-8.70;99.90;;;;;;4122252;28;20094;-55
2022/01/20 01:47:45;;;;;;;88.40;33.33;;;-8.70;99.90;;;;;;4121875;28;20080;-53
2022/01/20 01:49:47;;;;;;;94.88;35.60;;;-8.80;99.90;;;;;;4122034;28;20030;-58
2022/01/20 01:51:49;;;;;;;80.38;34.75;;;-8.90;99.90;;;;;;4124782;28;20474;-52
2022/01/20 01:53:50;;;;;;;87.82;34.70;;;-8.90;99.90;;;;;;4124477;28;20038;-53
2022/01/20 01:55:52;;;;;;;94.78;35.42;;;-9.00;99.90;;;;;;4125435;28;20376;-52
2022/01/20 01:57:53;;;;;;;86.10;33.63;;;-9.00;99.90;;;;;;4124395;28;20034;-54
2022/01/20 01:59:54;;;;;;;95.13;34.78;;;-9.00;99.90;;;;;;4125636;28;20038;-53
2022/01/20 02:01:56;;;;;;;91.57;37.17;;;-9.00;99.90;;;;;;4124638;28;20156;-55
2022/01/20 02:04:00;;;;;;;82.97;35.78;;;-9.00;99.90;;;;;;4127852;28;20097;-54
2022/01/20 02:06:34;;;;;;;86.45;35.08;;;-9.00;99.90;;;;;;4124298;28;20027;-58
2022/01/20 02:08:55;;;;;;;91.15;35.85;;;-9.00;99.90;;;;;;4110103;28;20047;-51
2022/01/20 02:18:12;;;;;;;93.65;32.30;;;-9.00;99.90;;;;;;4108735;28;20133;-57
2022/01/20 02:20:14;;;;;;;90.65;33.22;;;-9.00;99.90;;;;;;4108482;28;20137;-59
2022/01/20 02:22:15;;;;;;;90.05;34.38;;;-8.90;99.90;;;;;;4108791;28;20101;-54
2022/01/20 02:24:17;;;;;;;85.82;35.70;;;-8.80;99.90;;;;;;4114659;28;20073;-54
2022/01/20 02:26:19;;;;;;;94.88;35.08;;;-8.70;99.90;;;;;;4125188;28;20069;-54
2022/01/20 02:28:20;;;;;;;93.00;35.08;;;-8.70;99.90;;;;;;4124234;28;20039;-55
2022/01/20 02:30:24;;;;;;;92.45;34.97;;;-8.60;99.90;;;;;;4124749;28;20836;-54
2022/01/20 02:32:29;;;;;;;88.20;34.42;;;-8.60;99.90;;;;;;4124012;28;20089;-52
2022/01/20 02:34:31;;;;;;;87.45;33.03;;;-8.50;99.90;;;;;;4124514;28;20470;-59
2022/01/20 02:36:35;;;;;;;84.07;34.97;;;-8.50;99.90;;;;;;4124407;28;20542;-59
2022/01/20 02:38:41;;;;;;;88.35;36.20;;;-8.50;99.90;;;;;;4125227;28;20023;-54
2022/01/20 02:45:05;;;;;;;83.90;36.42;;;-8.60;99.90;;;;;;4124029;28;20557;-59
2022/01/20 02:47:06;;;;;;;91.90;36.13;;;-8.60;99.90;;;;;;4123890;28;20104;-61
2022/01/20 02:49:13;;;;;;;89.85;34.63;;;-8.50;99.90;;;;;;4124053;28;20042;-55
2022/01/20 02:51:14;;;;;;;80.65;34.72;;;-8.50;99.90;;;;;;4124156;28;20035;-56
2022/01/20 02:53:16;;;;;;;82.15;32.60;;;-8.50;99.90;;;;;;4123782;28;20030;-55
2022/01/20 02:55:17;;;;;;;90.45;33.22;;;-8.40;99.90;;;;;;4124279;28;20474;-53
2022/01/20 02:57:18;;;;;;;87.80;34.35;;;-8.50;99.90;;;;;;4123965;28;20118;-54
2022/01/20 02:59:19;;;;;;;87.18;31.85;;;-8.50;99.90;;;;;;4123489;28;20046;-55
2022/01/20 03:01:20;;;;;;;82.80;28.70;;;-8.50;99.90;;;;;;4123678;28;20572;-53
2022/01/20 03:03:21;;;;;;;79.15;31.63;;;-8.50;99.90;;;;;;4123245;28;20027;-49
2022/01/20 03:05:23;;;;;;;84.95;32.97;;;-8.60;99.90;;;;;;4125584;28;20468;-55
2022/01/20 03:07:24;;;;;;;83.75;34.20;;;-8.60;99.90;;;;;;4126391;28;20026;-55
2022/01/20 03:09:26;;;;;;;91.30;35.38;;;-8.60;99.90;;;;;;4125966;28;20038;-53
2022/01/20 03:11:27;;;;;;;98.07;35.65;;;-8.60;99.90;;;;;;4123554;28;20446;-53
2022/01/20 03:13:28;;;;;;;88.18;33.33;;;-8.50;99.90;;;;;;4124610;28;20124;-58
2022/01/20 03:15:29;;;;;;;86.13;32.13;;;-8.40;99.90;;;;;;4123358;28;20088;-59
2022/01/20 03:17:32;;;;;;;104.32;37.15;;;-8.40;99.90;;;;;;4123874;28;20038;-55
2022/01/20 03:19:34;;;;;;;90.82;37.08;;;-8.30;99.90;;;;;;4123501;28;20022;-56
2022/01/20 03:21:35;;;;;;;91.72;34.30;;;-8.30;99.90;;;;;;4123735;28;20063;-55
2022/01/20 03:23:36;;;;;;;101.25;33.40;;;-8.30;99.90;;;;;;4123381;28;20050;-57
2022/01/20 03:25:37;;;;;;;95.43;34.85;;;-8.40;99.90;;;;;;4121971;28;20038;-52
2022/01/20 03:27:38;;;;;;;91.00;31.75;;;-8.40;99.90;;;;;;4123366;28;20093;-57
2022/01/20 03:29:39;;;;;;;96.22;34.53;;;-8.40;99.90;;;;;;4123298;28;20030;-57
2022/01/20 03:31:40;;;;;;;96.63;32.60;;;-8.40;99.90;;;;;;4123892;28;20112;-54
2022/01/20 03:33:42;;;;;;;86.57;33.83;;;-8.40;99.90;;;;;;4123648;28;20030;-59
2022/01/20 03:35:43;;;;;;;99.25;34.10;;;-8.40;99.90;;;;;;4123920;28;20038;-57
2022/01/20 03:37:44;;;;;;;99.05;31.80;;;-8.50;99.90;;;;;;4122927;28;20466;-54
2022/01/20 03:39:45;;;;;;;117.22;33.00;;;-8.50;99.90;;;;;;4124319;28;20050;-61
2022/01/20 03:41:46;;;;;;;118.18;36.08;;;-8.60;99.90;;;;;;4123024;28;20038;-59
2022/01/20 03:43:48;;;;;;;195.15;37.55;;;-8.60;99.90;;;;;;4123887;28;20435;-57
2022/01/20 03:45:55;;;;;;;119.97;35.25;;;-8.60;99.90;;;;;;4122492;28;20120;-62
2022/01/20 03:48:06;;;;;;;141.40;40.42;;;-8.70;99.90;;;;;;4123514;28;20065;-55
2022/01/20 03:50:10;;;;;;;124.15;39.15;;;-8.70;99.90;;;;;;4122719;28;20089;-52
2022/01/20 03:52:11;;;;;;;136.85;38.25;;;-8.70;99.90;;;;;;4123857;28;20429;-55
2022/01/20 03:54:12;;;;;;;242.75;42.30;;;-8.70;99.90;;;;;;4123074;28;20054;-55
2022/01/20 03:56:14;;;;;;;131.05;38.17;;;-8.70;99.90;;;;;;4123732;28;20548;-54
2022/01/20 03:58:15;;;;;;;140.18;33.00;;;-8.70;99.90;;;;;;4123356;28;20376;-51
2022/01/20 04:00:16;;;;;;;104.63;33.08;;;-8.60;99.90;;;;;;4125660;28;20038;-56
2022/01/20 04:02:17;;;;;;;98.07;30.27;;;-8.50;99.90;;;;;;4126339;28;20050;-58
2022/01/20 04:04:18;;;;;;;131.35;33.97;;;-8.50;99.90;;;;;;4126401;28;20035;-60
2022/01/20 04:06:20;;;;;;;199.65;31.10;;;-8.40;99.90;;;;;;4127254;28;20096;-58
2022/01/20 04:08:21;;;;;;;144.73;30.60;;;-8.50;99.90;;;;;;4127003;28;20034;-53
2022/01/20 04:10:22;;;;;;;218.07;34.13;;;-8.40;99.90;;;;;;4126148;28;20097;-54
2022/01/20 04:12:23;;;;;;;184.32;35.08;;;-8.40;99.90;;;;;;4125868;28;20042;-59
2022/01/20 04:14:26;;;;;;;133.02;27.15;;;-8.40;99.90;;;;;;4126654;28;20042;-55
2022/01/20 04:16:40;;;;;;;135.00;28.77;;;-8.50;99.90;;;;;;4125631;28;20042;-58
2022/01/20 04:18:52;;;;;;;153.95;29.90;;;-8.50;99.90;;;;;;4126644;28;20089;-58
2022/01/20 04:20:54;;;;;;;176.93;32.42;;;-8.40;99.90;;;;;;4129380;28;20031;-55
2022/01/20 04:22:55;;;;;;;77.20;26.45;;;-8.40;99.90;;;;;;4126797;28;20027;-59
2022/01/20 04:24:56;;;;;;;87.32;28.90;;;-8.30;99.90;;;;;;4125664;28;20042;-56
2022/01/20 04:26:58;;;;;;;83.28;26.75;;;-8.30;99.90;;;;;;4125889;28;20636;-55
2022/01/20 04:28:59;;;;;;;104.82;29.98;;;-8.10;99.90;;;;;;4125571;28;20049;-55
2022/01/20 04:31:00;;;;;;;90.22;26.02;;;-8.10;99.90;;;;;;4126691;28;20035;-52
2022/01/20 04:33:02;;;;;;;89.22;29.13;;;-8.10;99.90;;;;;;4125515;28;20077;-56
2022/01/20 04:35:03;;;;;;;92.43;28.63;;;-8.10;99.90;;;;;;4126474;28;20097;-56
2022/01/20 04:37:05;;;;;;;135.55;29.35;;;-8.10;99.90;;;;;;4126062;28;20066;-54
2022/01/20 04:39:09;;;;;;;96.85;27.10;;;-8.10;99.90;;;;;;4125906;28;20026;-56
2022/01/20 04:41:10;;;;;;;82.28;26.60;;;-8.10;99.90;;;;;;4125564;28;20438;-52
2022/01/20 04:43:12;;;;;;;93.88;27.17;;;-8.20;99.90;;;;;;4125801;28;20584;-56
2022/01/20 04:45:19;;;;;;;89.55;26.10;;;-8.20;99.90;;;;;;4125968;28;20046;-55
2022/01/20 04:47:38;;;;;;;94.20;25.40;;;-8.20;99.90;;;;;;4125841;28;20026;-52
2022/01/20 04:58:47;;;;;;;92.97;29.88;;;-8.50;99.90;;;;;;4125305;28;20100;-56
2022/01/20 05:00:48;;;;;;;81.57;30.52;;;-8.50;99.90;;;;;;4124526;28;20716;-54
2022/01/20 05:02:50;;;;;;;77.85;30.20;;;-8.50;99.90;;;;;;4122162;28;20097;-52
2022/01/20 05:04:52;;;;;;;100.43;31.88;;;-8.50;99.90;;;;;;4122702;28;20076;-55
2022/01/20 05:06:56;;;;;;;104.18;32.83;;;-8.50;99.90;;;;;;4121047;28;20030;-55
2022/01/20 05:08:57;;;;;;;84.53;30.55;;;-8.50;99.90;;;;;;4125638;28;20050;-59
2022/01/20 05:11:01;;;;;;;91.45;31.40;;;-8.60;99.90;;;;;;4124929;28;20034;-54
2022/01/20 05:13:08;;;;;;;87.25;30.13;;;-8.60;99.90;;;;;;4112886;28;20043;-58
2022/01/20 05:15:09;;;;;;;92.35;32.33;;;-8.60;99.90;;;;;;4109241;28;20822;-60
2022/01/20 05:17:10;;;;;;;91.95;31.08;;;-8.70;99.90;;;;;;4108766;28;20532;-57
2022/01/20 05:19:11;;;;;;;86.53;29.63;;;-8.70;99.90;;;;;;4121885;28;20138;-58
2022/01/20 05:21:12;;;;;;;83.85;30.25;;;-8.70;99.90;;;;;;4124587;28;20030;-57
2022/01/20 05:23:13;;;;;;;94.65;27.67;;;-8.70;99.90;;;;;;4125323;28;20422;-55
2022/01/20 05:25:15;;;;;;;88.43;28.50;;;-8.80;99.90;;;;;;4124798;28;20058;-53
2022/01/20 05:27:16;;;;;;;81.93;26.23;;;-8.70;99.90;;;;;;4125548;28;20030;-53
2022/01/20 05:29:22;;;;;;;83.47;27.70;;;-8.70;99.90;;;;;;4119557;28;20894;-55
2022/01/20 05:31:23;;;;;;;88.03;29.60;;;-8.70;99.90;;;;;;4124963;28;20438;-53
2022/01/20 05:33:24;;;;;;;104.10;30.48;;;-8.60;99.90;;;;;;4116768;28;20086;-50
2022/01/20 05:35:25;;;;;;;84.70;29.65;;;-8.60;99.90;;;;;;4108995;28;20545;-58
2022/01/20 05:37:26;;;;;;;98.05;28.58;;;-8.60;99.90;;;;;;4107638;28;20078;-57
2022/01/20 05:39:28;;;;;;;77.78;29.05;;;-8.60;99.90;;;;;;4108856;28;20030;-61
2022/01/20 05:41:29;;;;;;;75.63;25.33;;;-8.60;99.90;;;;;;4114581;28;20042;-57
2022/01/20 05:43:30;;;;;;;87.18;28.73;;;-8.60;99.90;;;;;;4111705;28;20537;-60
2022/01/20 05:45:31;;;;;;;74.43;25.38;;;-8.60;99.90;;;;;;4124333;28;20062;-61
2022/01/20 05:47:34;;;;;;;83.50;26.50;;;-8.60;99.90;;;;;;4123710;28;20126;-57
2022/01/20 05:49:35;;;;;;;100.82;29.52;;;-8.60;99.90;;;;;;4124550;28;20034;-51
2022/01/20 05:51:38;;;;;;;97.82;30.85;;;-8.60;99.90;;;;;;4123968;28;20477;-52
2022/01/20 05:53:39;;;;;;;114.93;32.78;;;-8.70;99.90;;;;;;4125292;28;20046;-55
2022/01/20 05:55:41;;;;;;;98.88;30.23;;;-8.60;99.90;;;;;;4123154;28;20084;-53
2022/01/20 05:57:43;;;;;;;82.78;27.65;;;-8.60;99.90;;;;;;4122291;28;20116;-55
2022/01/20 05:59:44;;;;;;;102.22;29.90;;;-8.60;99.90;;;;;;4122366;28;20491;-55
2022/01/20 06:01:52;;;;;;;105.60;26.25;;;-8.50;99.90;;;;;;4121164;28;20108;-53
2022/01/20 06:03:54;;;;;;;83.32;26.10;;;-8.60;99.90;;;;;;4123504;28;20050;-56
2022/01/20 06:05:55;;;;;;;86.50;25.90;;;-8.60;99.90;;;;;;4124726;28;20573;-58
2022/01/20 06:07:56;;;;;;;88.28;26.98;;;-8.50;99.90;;;;;;4123891;28;20553;-57
2022/01/20 06:09:57;;;;;;;92.07;28.75;;;-8.60;99.90;;;;;;4124906;28;20030;-58
2022/01/20 06:11:58;;;;;;;90.55;29.65;;;-8.50;99.90;;;;;;4123390;28;20067;-61
2022/01/20 06:13:59;;;;;;;105.45;28.98;;;-8.50;99.90;;;;;;4124474;28;20057;-55
2022/01/20 06:16:01;;;;;;;81.10;26.65;;;-8.40;99.90;;;;;;4124295;28;20038;-59
2022/01/20 06:18:02;;;;;;;80.78;28.23;;;-8.40;99.90;;;;;;4123966;28;20050;-60
2022/01/20 06:20:06;;;;;;;87.38;25.95;;;-8.40;99.90;;;;;;4124305;28;20092;-56
2022/01/20 06:22:09;;;;;;;84.75;28.65;;;-8.40;99.90;;;;;;4122707;28;20084;-58
2022/01/20 06:24:11;;;;;;;87.32;27.77;;;-8.40;99.90;;;;;;4123705;28;20035;-55
2022/01/20 06:26:13;;;;;;;77.03;26.00;;;-8.40;99.90;;;;;;4123555;28;20050;-56
2022/01/20 06:28:16;;;;;;;81.38;27.55;;;-8.50;99.90;;;;;;4124359;28;20053;-53
2022/01/20 06:30:17;;;;;;;73.82;25.98;;;-8.50;99.90;;;;;;4123033;28;20517;-61
2022/01/20 06:32:18;;;;;;;81.80;27.95;;;-8.50;99.90;;;;;;4124152;28;20069;-56
2022/01/20 06:34:19;;;;;;;86.70;29.45;;;-8.50;99.90;;;;;;4123809;28;20034;-57
2022/01/20 06:36:20;;;;;;;82.45;30.23;;;-8.50;99.90;;;;;;4124382;28;20100;-56
2022/01/20 06:38:22;;;;;;;102.97;30.77;;;-8.50;99.90;;;;;;4123486;28;20097;-57
2022/01/20 06:40:24;;;;;;;79.65;29.27;;;-8.50;99.90;;;;;;4123524;28;20034;-58
2022/01/20 06:42:25;;;;;;;76.90;27.83;;;-8.50;99.90;;;;;;4123313;28;20035;-57
2022/01/20 06:44:26;;;;;;;87.57;27.98;;;-8.40;99.90;;;;;;4123463;28;20105;-56
2022/01/20 06:46:27;;;;;;;84.07;30.83;;;-8.40;99.90;;;;;;4123928;28;20042;-59
2022/01/20 06:48:28;;;;;;;77.97;27.98;;;-8.40;99.90;;;;;;4123642;28;20069;-55
2022/01/20 06:50:29;;;;;;;80.32;28.45;;;-8.40;99.90;;;;;;4123326;28;20089;-57
2022/01/20 06:52:31;;;;;;;77.65;26.25;;;-8.40;99.90;;;;;;4123140;28;20030;-55
2022/01/20 06:54:34;;;;;;;77.68;26.15;;;-8.40;99.90;;;;;;4123961;28;20080;-57
2022/01/20 06:56:35;;;;;;;80.90;27.75;;;-8.30;99.90;;;;;;4123219;28;20073;-58
2022/01/20 06:58:36;;;;;;;84.38;28.67;;;-8.30;99.90;;;;;;4123575;28;20043;-60
2022/01/20 07:00:37;;;;;;;80.68;28.38;;;-8.40;99.90;;;;;;4123067;28;20166;-56
2022/01/20 07:02:39;;;;;;;91.03;30.48;;;-8.30;99.90;;;;;;4123746;28;20054;-57
2022/01/20 07:04:40;;;;;;;84.28;28.35;;;-8.40;99.90;;;;;;4123019;28;20105;-56
2022/01/20 07:06:42;;;;;;;79.43;26.98;;;-8.30;99.90;;;;;;4122700;28;20027;-59
2022/01/20 07:08:44;;;;;;;70.57;27.95;;;-8.40;99.90;;;;;;4120145;28;20186;-60
2022/01/20 07:10:45;;;;;;;69.15;25.55;;;-8.30;99.90;;;;;;4121447;28;20034;-58
2022/01/20 07:12:47;;;;;;;73.15;26.27;;;-8.30;99.90;;;;;;4119963;28;20089;-61
2022/01/20 07:14:48;;;;;;;81.68;27.92;;;-8.30;99.90;;;;;;4122905;28;20044;-61
2022/01/20 07:16:50;;;;;;;82.50;28.48;;;-8.30;99.90;;;;;;4123072;28;20038;-60
2022/01/20 07:18:51;;;;;;;72.78;24.40;;;-8.30;99.90;;;;;;4107173;28;20089;-58
2022/01/20 07:20:52;;;;;;;83.80;25.75;;;-8.40;99.90;;;;;;4108092;28;20038;-57
2022/01/20 07:22:53;;;;;;;81.18;26.77;;;-8.40;99.90;;;;;;4124165;28;20440;-55
2022/01/20 07:24:55;;;;;;;84.65;29.25;;;-8.40;99.90;;;;;;4124181;28;20491;-58
2022/01/20 07:26:57;;;;;;;77.22;25.52;;;-8.40;99.90;;;;;;4123307;28;20030;-64
2022/01/20 07:28:58;;;;;;;79.65;27.77;;;-8.40;99.90;;;;;;4124138;28;20042;-59
2022/01/20 07:31:00;;;;;;;81.00;28.05;;;-8.40;99.90;;;;;;4122137;28;20026;-59
2022/01/20 07:33:03;;;;;;;80.32;28.42;;;-8.40;99.90;;;;;;4123976;28;20038;-54
2022/01/20 07:35:05;;;;;;;80.07;28.48;;;-8.40;99.90;;;;;;4122231;28;20050;-53
2022/01/20 07:37:06;;;;;;;82.22;28.27;;;-8.40;99.90;;;;;;4123160;28;20089;-58
2022/01/20 07:39:07;;;;;;;86.70;28.85;;;-8.30;99.90;;;;;;4123143;28;20430;-61
2022/01/20 07:41:08;;;;;;;95.68;29.48;;;-8.30;99.90;;;;;;4123175;28;20081;-54
2022/01/20 07:43:09;;;;;;;82.18;27.38;;;-8.30;99.90;;;;;;4122975;28;20108;-59
2022/01/20 07:45:11;;;;;;;80.60;27.20;;;-8.30;99.90;;;;;;4123147;28;20050;-56
2022/01/20 07:47:12;;;;;;;82.07;28.48;;;-8.20;99.90;;;;;;4123144;28;20077;-58
2022/01/20 07:49:14;;;;;;;81.38;28.05;;;-8.30;99.90;;;;;;4123400;28;20042;-55
2022/01/20 07:51:16;;;;;;;85.95;28.65;;;-8.20;99.90;;;;;;4122806;28;20026;-59
2022/01/20 07:53:17;;;;;;;88.20;28.88;;;-8.20;99.90;;;;;;4123144;28;20522;-63
2022/01/20 07:55:18;;;;;;;91.82;28.85;;;-8.20;99.90;;;;;;4123188;28;20034;-58
2022/01/20 07:57:19;;;;;;;92.85;30.17;;;-8.10;99.90;;;;;;4122754;28;20065;-56
2022/01/20 07:59:20;;;;;;;106.05;34.78;;;-8.00;99.90;;;;;;4124791;28;20038;-57
2022/01/20 08:01:24;;;;;;;100.03;30.60;;;-8.00;99.90;;;;;;4126405;28;20400;-58
2022/01/20 08:03:26;;;;;;;82.32;28.55;;;-8.00;99.90;;;;;;4127511;28;20564;-57
2022/01/20 08:05:27;;;;;;;83.22;29.30;;;-7.90;99.90;;;;;;4126550;28;20430;-58
2022/01/20 08:07:28;;;;;;;85.10;26.98;;;-7.90;99.90;;;;;;4127640;28;20406;-58
2022/01/20 08:09:29;;;;;;;88.25;29.95;;;-7.90;99.90;;;;;;4127495;28;20038;-55
2022/01/20 08:11:31;;;;;;;80.82;28.48;;;-8.00;99.90;;;;;;4126323;28;20034;-63
2022/01/20 08:13:32;;;;;;;90.63;30.05;;;-7.90;99.90;;;;;;4126984;28;20077;-54
2022/01/20 08:15:33;;;;;;;78.78;29.08;;;-7.90;99.90;;;;;;4127394;28;20085;-57
2022/01/20 08:17:34;;;;;;;87.32;28.42;;;-7.90;99.90;;;;;;4127065;28;20458;-63
2022/01/20 08:19:35;;;;;;;97.60;32.45;;;-7.90;99.90;;;;;;4127025;28;20442;-56
2022/01/20 08:21:38;;;;;;;95.13;30.58;;;-7.80;99.90;;;;;;4126703;28;20026;-57
2022/01/20 08:23:39;;;;;;;88.00;30.95;;;-7.80;99.90;;;;;;4126808;28;20030;-56
2022/01/20 08:25:40;;;;;;;88.55;31.25;;;-7.80;99.90;;;;;;4124237;28;20120;-62
2022/01/20 08:27:43;;;;;;;103.13;32.72;;;-7.80;99.90;;;;;;4122499;28;20037;-60
2022/01/20 08:29:44;;;;;;;95.88;30.20;;;-7.80;99.90;;;;;;4122985;28;20034;-55
2022/01/20 08:31:45;;;;;;;99.57;29.70;;;-7.70;99.90;;;;;;4122222;28;20077;-62
2022/01/20 08:33:46;;;;;;;96.25;31.73;;;-7.80;99.90;;;;;;4122972;28;20123;-57
2022/01/20 08:35:48;;;;;;;91.47;30.92;;;-7.80;99.90;;;;;;4122153;28;20027;-62
2022/01/20 08:37:50;;;;;;;93.70;31.40;;;-7.80;99.90;;;;;;4122932;28;20450;-62
2022/01/20 08:39:51;;;;;;;81.00;29.60;;;-7.80;99.90;;;;;;4122790;28;20051;-62
2022/01/20 08:41:52;;;;;;;97.53;31.83;;;-7.80;99.90;;;;;;4122859;28;20034;-63
2022/01/20 08:43:53;;;;;;;89.18;29.60;;;-7.80;99.90;;;;;;4122256;28;20085;-55
2022/01/20 08:45:54;;;;;;;92.38;32.75;;;-7.80;99.90;;;;;;4123524;28;20100;-65
2022/01/20 08:47:57;;;;;;;97.25;31.52;;;-7.70;99.90;;;;;;4125350;28;20026;-58
2022/01/20 08:49:59;;;;;;;97.55;30.85;;;-7.60;99.90;;;;;;4125307;28;20042;-65
2022/01/20 08:52:00;;;;;;;106.53;35.67;;;-7.50;99.90;;;;;;4125419;28;20035;-60
2022/01/20 08:54:01;;;;;;;99.07;31.08;;;-7.50;99.90;;;;;;4125025;28;20125;-58
2022/01/20 08:56:03;;;;;;;79.10;28.23;;;-7.50;99.90;;;;;;4125434;28;20038;-55
2022/01/20 08:58:05;;;;;;;82.18;30.15;;;-7.60;99.90;;;;;;4125245;28;20030;-60
2022/01/20 09:00:08;;;;;;;87.03;30.30;;;-7.70;99.90;;;;;;4124627;28;20100;-64
2022/01/20 09:02:10;;;;;;;83.72;29.77;;;-7.70;99.90;;;;;;4124964;28;20042;-58
2022/01/20 09:04:11;;;;;;;83.68;29.85;;;-7.70;99.90;;;;;;4126062;28;20089;-61
2022/01/20 09:06:12;;;;;;;79.43;28.92;;;-7.70;99.90;;;;;;4124986;28;20043;-56
2022/01/20 09:08:14;;;;;;;83.72;28.85;;;-7.70;99.90;;;;;;4125776;28;20022;-61
2022/01/20 09:10:20;;;;;;;77.53;28.80;;;-7.70;99.90;;;;;;4125178;28;20056;-63
2022/01/20 09:16:54;;;;;;;74.50;27.50;;;-7.50;99.90;;;;;;4125272;28;20081;-55
2022/01/20 09:18:55;;;;;;;86.50;29.50;;;-7.50;99.90;;;;;;4124586;28;20034;-63
2022/01/20 09:20:56;;;;;;;102.20;33.28;;;-7.50;99.90;;;;;;4125212;28;20034;-57
2022/01/20 09:22:58;;;;;;;101.38;33.85;;;-7.50;99.90;;;;;;4124813;28;20090;-56
2022/01/20 09:24:59;;;;;;;102.72;32.67;;;-7.40;99.90;;;;;;4124976;28;20031;-63
2022/01/20 09:27:01;;;;;;;94.00;32.40;;;-7.30;99.90;;;;;;4124583;28;20576;-58
2022/01/20 09:29:03;;;;;;;89.35;28.17;;;-7.20;99.90;;;;;;4124682;28;20035;-57
2022/01/20 09:31:04;;;;;;;85.88;29.02;;;-7.10;99.90;;;;;;4124790;28;20123;-58
2022/01/20 09:35:06;;;;;;;92.90;31.08;;;-7.30;99.90;;;;;;4124695;28;20474;-63
2022/01/20 09:37:08;;;;;;;76.75;28.45;;;-7.20;99.90;;;;;;4124662;28;20466;-59
2022/01/20 09:39:09;;;;;;;82.22;30.90;;;-7.10;99.90;;;;;;4125589;28;20030;-57
2022/01/20 09:41:10;;;;;;;93.05;30.58;;;-7.00;99.90;;;;;;4124384;28;20050;-59
2022/01/20 09:43:14;;;;;;;77.75;29.50;;;-6.90;99.90;;;;;;4125047;28;20077;-54
2022/01/20 09:45:16;;;;;;;80.20;29.25;;;-6.70;99.90;;;;;;4124005;28;20930;-60
2022/01/20 09:47:17;;;;;;;80.38;29.15;;;-6.50;99.90;;;;;;4125038;28;20038;-59
2022/01/20 09:49:19;;;;;;;78.03;27.67;;;-6.50;99.90;;;;;;4124279;28;20018;-58
2022/01/20 09:51:20;;;;;;;75.80;28.02;;;-6.40;99.90;;;;;;4125056;28;20388;-58
2022/01/20 09:53:22;;;;;;;77.57;29.42;;;-6.40;99.90;;;;;;4123659;28;20022;-59
2022/01/20 09:55:23;;;;;;;66.93;25.90;;;-6.40;99.90;;;;;;4124480;28;20140;-57
2022/01/20 09:57:24;;;;;;;73.45;26.92;;;-6.30;99.90;;;;;;4122914;28;20034;-61
2022/01/20 09:59:26;;;;;;;76.60;26.70;;;-6.30;99.90;;;;;;4124291;28;20081;-58
2022/01/20 10:01:44;;;;;;;77.18;28.10;;;-6.20;99.90;;;;;;4123920;28;20575;-60
2022/01/20 10:03:47;;;;;;;67.03;24.90;;;-6.10;99.90;;;;;;4124455;28;20026;-55
2022/01/20 10:05:53;;;;;;;74.28;24.63;;;-5.90;99.90;;;;;;4123791;28;20042;-62
2022/01/20 10:08:04;;;;;;;69.35;24.90;;;-5.80;99.90;;;;;;4124205;28;20085;-62
2022/01/20 10:10:05;;;;;;;62.83;23.60;;;-5.80;99.90;;;;;;4124570;28;20081;-58
2022/01/20 10:12:09;;;;;;;74.78;25.73;;;-5.80;99.90;;;;;;4124395;28;20085;-56
2022/01/20 10:14:10;;;;;;;70.65;28.00;;;-5.70;99.90;;;;;;4124024;28;20812;-59
2022/01/20 10:16:13;;;;;;;69.68;25.95;;;-5.70;99.90;;;;;;4123610;28;20034;-59
2022/01/20 10:18:15;;;;;;;73.93;25.52;;;-5.50;99.90;;;;;;4124217;28;20042;-58
2022/01/20 10:20:16;;;;;;;62.03;24.08;;;-5.30;99.90;;;;;;4122990;28;20084;-61
2022/01/20 10:22:23;;;;;;;63.55;25.17;;;-5.20;99.90;;;;;;4123938;28;20430;-56
2022/01/20 10:24:27;;;;;;;75.68;26.38;;;-5.10;99.90;;;;;;4123435;28;20411;-56
2022/01/20 10:26:28;;;;;;;67.72;27.40;;;-5.00;99.90;;;;;;4123765;28;20042;-62
2022/01/20 10:28:30;;;;;;;70.80;25.15;;;-4.90;99.90;;;;;;4123252;28;20038;-58
2022/01/20 10:30:33;;;;;;;74.13;27.92;;;-4.90;99.90;;;;;;4124666;28;20046;-60
2022/01/20 10:32:49;;;;;;;73.03;27.83;;;-4.90;99.90;;;;;;4122834;28;20116;-60
2022/01/20 10:35:01;;;;;;;80.00;30.52;;;-4.80;99.90;;;;;;4124794;28;20093;-57
2022/01/20 10:37:06;;;;;;;74.35;26.73;;;-4.70;99.90;;;;;;4123414;28;20076;-60
2022/01/20 10:39:08;;;;;;;67.30;27.75;;;-4.60;99.90;;;;;;4124543;28;20054;-57
2022/01/20 10:41:09;;;;;;;71.15;27.25;;;-4.50;99.90;;;;;;4123739;28;20057;-58
2022/01/20 10:43:28;;;;;;;73.05;27.50;;;-4.50;99.90;;;;;;4123889;28;20034;-56
2022/01/20 10:45:30;;;;;;;62.65;26.15;;;-4.40;99.90;;;;;;4122810;28;20848;-59
2022/01/20 10:47:34;;;;;;;62.00;24.65;;;-4.40;99.90;;;;;;4123913;28;20023;-58
2022/01/20 10:49:35;;;;;;;60.20;26.73;;;-4.40;99.90;;;;;;4123030;28;20052;-60
2022/01/20 10:51:37;;;;;;;67.25;25.10;;;-4.40;99.90;;;;;;4123869;28;20459;-57
2022/01/20 10:53:38;;;;;;;65.75;25.23;;;-4.40;99.90;;;;;;4123273;28;20104;-59
2022/01/20 10:55:39;;;;;;;72.40;26.15;;;-4.40;99.90;;;;;;4123411;28;20085;-62
2022/01/20 10:57:40;;;;;;;73.15;28.60;;;-4.30;99.90;;;;;;4123187;28;20149;-60
2022/01/20 10:59:50;;;;;;;66.82;26.00;;;-4.30;99.90;;;;;;4123662;28;20042;-59
2022/01/20 11:02:08;;;;;;;75.22;28.48;;;-4.30;99.90;;;;;;4122953;28;20522;-60
2022/01/20 11:04:10;;;;;;;64.45;25.92;;;-4.40;99.90;;;;;;4123222;28;20031;-64
2022/01/20 11:06:12;;;;;;;66.35;24.63;;;-4.30;99.90;;;;;;4123130;28;20179;-58
2022/01/20 11:08:13;;;;;;;77.80;29.20;;;-4.20;99.90;;;;;;4122817;28;20034;-59
2022/01/20 11:10:16;;;;;;;68.85;29.92;;;-4.20;99.90;;;;;;4123686;28;20030;-55
2022/01/20 11:12:18;;;;;;;64.03;26.63;;;-4.20;99.90;;;;;;4121466;28;20035;-58
2022/01/20 11:14:19;;;;;;;68.03;27.30;;;-4.10;99.90;;;;;;4123062;28;20034;-61
2022/01/20 11:16:21;;;;;;;68.30;28.55;;;-4.00;99.90;;;;;;4122353;28;20081;-62